createdAt,value
2017-08-14T00:00:22.027Z,16.72
2017-08-14T00:01:31.984Z,16.77
2017-08-14T00:02:41.945Z,16.72
2017-08-14T00:03:52.219Z,16.73
2017-08-14T00:05:02.707Z,16.65
2017-08-14T00:06:12.663Z,16.57
2017-08-14T00:07:22.935Z,16.51
2017-08-14T00:08:33.225Z,16.49
2017-08-14T00:09:43.813Z,16.54
2017-08-14T00:10:54.090Z,16.57
2017-08-14T00:12:04.378Z,16.47
2017-08-14T00:13:14.651Z,16.44
2017-08-14T00:14:24.931Z,16.54
2017-08-14T00:15:35.207Z,16.43
2017-08-14T00:16:45.279Z,16.4
2017-08-14T00:17:55.257Z,16.4
2017-08-14T00:19:05.539Z,16.41
2017-08-14T00:20:15.818Z,16.37
2017-08-14T00:21:26.063Z,16.44
2017-08-14T00:22:36.345Z,16.28
2017-08-14T00:23:46.318Z,16.36
2017-08-14T00:24:56.629Z,16.36
2017-08-14T00:26:06.920Z,16.29
2017-08-14T00:27:17.154Z,16.28
2017-08-14T00:28:27.117Z,16.34
2017-08-14T00:29:37.383Z,16.31
2017-08-14T00:30:47.671Z,16.24
2017-08-14T00:31:57.024Z,16.22
2017-08-14T00:33:07.543Z,16.25
2017-08-14T00:34:17.513Z,16.22
2017-08-14T00:35:27.809Z,16.16
2017-08-14T00:36:37.470Z,16.24
2017-08-14T00:37:47.757Z,16.22
2017-08-14T00:38:57.966Z,16.24
2017-08-14T00:40:08.253Z,16.26
2017-08-14T00:41:18.208Z,16.16
2017-08-14T00:42:28.474Z,16.17
2017-08-14T00:43:38.153Z,16.1
2017-08-14T00:44:48.376Z,16.13
2017-08-14T00:45:58.350Z,16.12
2017-08-14T00:47:08.647Z,16.08
2017-08-14T00:48:18.940Z,16.09
2017-08-14T00:49:28.909Z,16.09
2017-08-14T00:50:39.446Z,16.02
2017-08-14T00:51:48.785Z,16.09
2017-08-14T00:52:59.053Z,16.03
2017-08-14T00:54:09.024Z,16.02
2017-08-14T00:55:19.314Z,16.02
2017-08-14T00:56:29.525Z,16.02
2017-08-14T00:57:39.800Z,15.99
2017-08-14T00:58:50.089Z,16.05
2017-08-14T01:00:00.068Z,16.03
2017-08-14T01:01:10.373Z,15.91
2017-08-14T01:02:20.587Z,16.02
2017-08-14T01:03:30.552Z,15.99
2017-08-14T01:04:40.845Z,16.02
2017-08-14T01:05:51.118Z,16.03
2017-08-14T01:07:01.417Z,16.06
2017-08-14T01:08:11.652Z,15.99
2017-08-14T01:09:21.623Z,15.92
2017-08-14T01:10:31.915Z,15.92
2017-08-14T01:11:41.874Z,15.99
2017-08-14T01:12:51.854Z,15.9
2017-08-14T01:14:02.065Z,15.98
2017-08-14T01:15:12.348Z,15.85
2017-08-14T01:16:22.319Z,15.91
2017-08-14T01:17:31.969Z,15.84
2017-08-14T01:18:42.259Z,15.85
2017-08-14T01:19:52.475Z,15.78
2017-08-14T01:21:02.756Z,15.84
2017-08-14T01:22:13.020Z,15.75
2017-08-14T01:23:23.316Z,15.75
2017-08-14T01:24:33.595Z,15.73
2017-08-14T01:25:44.134Z,15.73
2017-08-14T01:26:54.103Z,15.72
2017-08-14T01:28:04.377Z,15.66
2017-08-14T01:29:14.029Z,15.65
2017-08-14T01:30:24.003Z,15.66
2017-08-14T01:31:34.529Z,15.66
2017-08-14T01:32:44.809Z,15.66
2017-08-14T01:33:55.105Z,15.65
2017-08-14T01:35:05.079Z,15.65
2017-08-14T01:36:15.379Z,15.62
2017-08-14T01:37:25.908Z,15.63
2017-08-14T01:38:35.880Z,15.65
2017-08-14T01:39:46.163Z,15.62
2017-08-14T01:40:56.129Z,15.65
2017-08-14T01:42:06.102Z,15.65
2017-08-14T01:43:16.329Z,15.65
2017-08-14T01:44:26.602Z,15.57
2017-08-14T01:45:36.558Z,15.59
2017-08-14T01:46:46.241Z,15.66
2017-08-14T01:47:56.514Z,15.62
2017-08-14T01:49:07.068Z,15.59
2017-08-14T01:50:17.271Z,15.66
2017-08-14T01:51:27.556Z,15.57
2017-08-14T01:52:37.513Z,15.57
2017-08-14T01:53:47.790Z,15.6
2017-08-14T01:54:58.011Z,15.57
2017-08-14T01:56:07.981Z,15.59
2017-08-14T01:57:18.257Z,15.62
2017-08-14T01:58:28.540Z,15.65
2017-08-14T01:59:38.832Z,15.57
2017-08-14T02:00:49.364Z,15.52
2017-08-14T02:01:59.029Z,15.51
2017-08-14T02:03:09.304Z,15.59
2017-08-14T02:04:19.566Z,15.57
2017-08-14T02:05:29.843Z,15.59
2017-08-14T02:06:40.044Z,15.6
2017-08-14T02:07:50.329Z,15.63
2017-08-14T02:09:00.617Z,15.57
2017-08-14T02:10:10.904Z,15.65
2017-08-14T02:11:21.180Z,15.55
2017-08-14T02:12:31.705Z,15.54
2017-08-14T02:13:41.984Z,15.65
2017-08-14T02:14:51.646Z,15.54
2017-08-14T02:16:01.608Z,15.6
2017-08-14T02:17:11.877Z,15.57
2017-08-14T02:18:22.410Z,15.6
2017-08-14T02:19:32.686Z,15.6
2017-08-14T02:20:42.651Z,15.52
2017-08-14T02:21:52.614Z,15.51
2017-08-14T02:23:02.585Z,15.44
2017-08-14T02:24:13.102Z,15.47
2017-08-14T02:25:23.066Z,15.43
2017-08-14T02:26:33.362Z,15.43
2017-08-14T02:27:43.332Z,15.33
2017-08-14T02:28:53.608Z,15.43
2017-08-14T02:30:04.138Z,15.39
2017-08-14T02:31:14.415Z,15.36
2017-08-14T02:32:24.393Z,15.29
2017-08-14T02:33:34.663Z,15.23
2017-08-14T02:34:44.627Z,15.19
2017-08-14T02:35:55.154Z,15.14
2017-08-14T02:37:05.116Z,15.14
2017-08-14T02:38:15.095Z,15.04
2017-08-14T02:39:25.072Z,15.05
2017-08-14T02:40:34.737Z,15.05
2017-08-14T02:41:44.959Z,15.07
2017-08-14T02:42:54.633Z,14.99
2017-08-14T02:44:04.900Z,14.96
2017-08-14T02:45:14.874Z,14.99
2017-08-14T02:46:25.173Z,14.93
2017-08-14T02:47:35.086Z,15.05
2017-08-14T02:48:45.082Z,15.05
2017-08-14T02:49:55.356Z,14.96
2017-08-14T02:51:05.632Z,15.05
2017-08-14T02:52:15.916Z,15.07
2017-08-14T02:53:26.121Z,15.02
2017-08-14T02:54:36.094Z,14.97
2017-08-14T02:55:45.752Z,14.94
2017-08-14T02:56:56.045Z,15.07
2017-08-14T02:58:06.322Z,15.05
2017-08-14T02:59:16.840Z,15.05
2017-08-14T03:00:26.807Z,15.04
2017-08-14T03:01:36.779Z,15.04
2017-08-14T03:02:47.051Z,15.05
2017-08-14T03:03:57.023Z,15.05
2017-08-14T03:05:07.238Z,14.99
2017-08-14T03:06:17.515Z,14.97
2017-08-14T03:07:27.791Z,14.99
2017-08-14T03:08:38.060Z,14.99
2017-08-14T03:09:48.338Z,15.02
2017-08-14T03:10:58.553Z,14.99
2017-08-14T03:12:08.834Z,15.02
2017-08-14T03:13:18.791Z,15.07
2017-08-14T03:14:29.047Z,15
2017-08-14T03:15:39.320Z,15.02
2017-08-14T03:16:49.877Z,15.04
2017-08-14T03:17:59.832Z,15.02
2017-08-14T03:19:09.803Z,15.08
2017-08-14T03:20:20.061Z,15.1
2017-08-14T03:21:30.341Z,15.12
2017-08-14T03:22:40.880Z,15.17
2017-08-14T03:23:51.166Z,15.1
2017-08-14T03:25:01.436Z,15.11
2017-08-14T03:26:11.718Z,15.14
2017-08-14T03:27:21.683Z,15.17
2017-08-14T03:28:31.891Z,15.19
2017-08-14T03:29:42.184Z,15.12
2017-08-14T03:30:52.477Z,15.19
2017-08-14T03:32:02.471Z,15.23
2017-08-14T03:33:12.748Z,15.19
2017-08-14T03:34:23.259Z,15.29
2017-08-14T03:35:33.218Z,15.23
2017-08-14T03:36:43.496Z,15.37
2017-08-14T03:37:53.770Z,15.41
2017-08-14T03:39:04.046Z,15.29
2017-08-14T03:40:14.586Z,15.45
2017-08-14T03:41:24.560Z,15.44
2017-08-14T03:42:34.833Z,15.44
2017-08-14T03:43:45.127Z,15.48
2017-08-14T03:44:55.422Z,15.52
2017-08-14T03:46:05.640Z,15.41
2017-08-14T03:47:15.917Z,15.45
2017-08-14T03:48:26.201Z,15.48
2017-08-14T03:49:36.175Z,15.45
2017-08-14T03:50:46.146Z,15.48
2017-08-14T03:51:56.672Z,15.35
2017-08-14T03:53:06.944Z,15.47
2017-08-14T03:54:16.920Z,15.43
2017-08-14T03:55:27.211Z,15.41
2017-08-14T03:56:36.546Z,15.43
2017-08-14T03:57:47.071Z,15.32
2017-08-14T03:58:57.045Z,15.43
2017-08-14T04:00:07.002Z,15.27
2017-08-14T04:01:16.960Z,15.3
2017-08-14T04:02:27.237Z,15.25
2017-08-14T04:03:37.756Z,15.22
2017-08-14T04:04:48.032Z,15.26
2017-08-14T04:05:58.317Z,15.15
2017-08-14T04:07:08.588Z,15.11
2017-08-14T04:08:18.560Z,15.15
2017-08-14T04:09:29.118Z,15.08
2017-08-14T04:10:38.460Z,15.04
2017-08-14T04:11:48.719Z,15.04
2017-08-14T04:12:58.705Z,15.05
2017-08-14T04:14:08.978Z,14.99
2017-08-14T04:15:19.493Z,15
2017-08-14T04:16:29.764Z,15.02
2017-08-14T04:17:40.080Z,15.14
2017-08-14T04:18:49.768Z,15.15
2017-08-14T04:20:00.045Z,15.12
2017-08-14T04:21:10.579Z,15.22
2017-08-14T04:22:20.848Z,15.22
2017-08-14T04:23:30.805Z,15.23
2017-08-14T04:24:41.087Z,15.22
2017-08-14T04:25:51.044Z,15.22
2017-08-14T04:27:01.566Z,15.14
2017-08-14T04:28:11.845Z,15.26
2017-08-14T04:29:22.125Z,15.17
2017-08-14T04:30:32.397Z,15.18
2017-08-14T04:31:42.359Z,15.22
2017-08-14T04:32:52.886Z,15.19
2017-08-14T04:34:03.161Z,15.17
2017-08-14T04:35:13.431Z,15.14
2017-08-14T04:36:23.399Z,15.26
2017-08-14T04:37:33.695Z,15.26
2017-08-14T04:38:43.907Z,15.25
2017-08-14T04:39:54.176Z,15.19
2017-08-14T04:41:04.459Z,15.17
2017-08-14T04:42:14.720Z,15.17
2017-08-14T04:43:24.990Z,15.3
2017-08-14T04:44:35.519Z,15.3
2017-08-14T04:45:45.486Z,15.36
2017-08-14T04:46:55.450Z,15.36
2017-08-14T04:48:05.442Z,15.43
2017-08-14T04:49:15.722Z,15.51
2017-08-14T04:50:25.944Z,15.47
2017-08-14T04:51:36.213Z,15.48
2017-08-14T04:52:45.870Z,15.5
2017-08-14T04:53:56.151Z,15.54
2017-08-14T04:55:06.450Z,15.54
2017-08-14T04:56:16.965Z,15.52
2017-08-14T04:57:27.249Z,15.54
2017-08-14T04:58:37.226Z,15.57
2017-08-14T04:59:47.495Z,15.57
2017-08-14T05:00:57.761Z,15.55
2017-08-14T05:02:07.353Z,15.65
2017-08-14T05:03:17.627Z,15.66
2017-08-14T05:04:27.595Z,15.66
2017-08-14T05:05:37.568Z,15.57
2017-08-14T05:06:47.844Z,15.62
2017-08-14T05:07:58.389Z,15.51
2017-08-14T05:09:08.665Z,15.65
2017-08-14T05:10:18.931Z,15.66
2017-08-14T05:11:28.909Z,15.69
2017-08-14T05:12:38.887Z,15.69
2017-08-14T05:13:49.427Z,15.62
2017-08-14T05:14:59.412Z,15.69
2017-08-14T05:16:09.709Z,15.73
2017-08-14T05:17:19.984Z,15.7
2017-08-14T05:18:30.250Z,15.7
2017-08-14T05:19:40.460Z,15.69
2017-08-14T05:20:50.447Z,15.83
2017-08-14T05:22:00.413Z,15.73
2017-08-14T05:23:10.694Z,15.85
2017-08-14T05:24:20.958Z,15.85
2017-08-14T05:25:31.178Z,15.91
2017-08-14T05:26:41.463Z,15.84
2017-08-14T05:27:51.727Z,15.87
2017-08-14T05:29:02.003Z,15.91
2017-08-14T05:30:12.279Z,16.03
2017-08-14T05:31:22.486Z,16.05
2017-08-14T05:32:32.472Z,16.03
2017-08-14T05:33:42.452Z,16.02
2017-08-14T05:34:52.439Z,16
2017-08-14T05:36:02.102Z,16.1
2017-08-14T05:37:12.321Z,16.12
2017-08-14T05:38:22.299Z,16.09
2017-08-14T05:39:32.877Z,16.12
2017-08-14T05:40:43.167Z,16.21
2017-08-14T05:41:53.453Z,16.24
2017-08-14T05:43:03.967Z,16.28
2017-08-14T05:44:14.255Z,16.24
2017-08-14T05:45:24.542Z,16.29
2017-08-14T05:46:34.198Z,16.26
2017-08-14T05:47:44.481Z,16.32
2017-08-14T05:48:55.036Z,16.4
2017-08-14T05:50:05.321Z,16.4
2017-08-14T05:51:15.597Z,16.46
2017-08-14T05:52:26.193Z,16.44
2017-08-14T05:53:36.141Z,16.44
2017-08-14T05:54:46.665Z,16.36
2017-08-14T05:55:56.647Z,16.46
2017-08-14T05:57:06.940Z,16.39
2017-08-14T05:58:16.914Z,16.43
2017-08-14T05:59:26.554Z,16.5
2017-08-14T06:00:37.069Z,16.57
2017-08-14T06:01:47.038Z,16.55
2017-08-14T06:02:57.321Z,16.51
2017-08-14T06:04:07.282Z,16.58
2017-08-14T06:05:17.581Z,16.58
2017-08-14T06:06:28.130Z,16.55
2017-08-14T06:07:38.099Z,16.59
2017-08-14T06:08:47.737Z,16.64
2017-08-14T06:09:57.403Z,16.66
2017-08-14T06:11:07.392Z,16.76
2017-08-14T06:12:17.597Z,16.72
2017-08-14T06:13:27.569Z,16.79
2017-08-14T06:14:37.856Z,16.86
2017-08-14T06:15:48.139Z,16.87
2017-08-14T06:16:58.420Z,16.84
2017-08-14T06:18:08.970Z,16.86
2017-08-14T06:19:19.253Z,16.99
2017-08-14T06:20:29.538Z,17.02
2017-08-14T06:21:39.506Z,17.04
2017-08-14T06:22:49.160Z,17.07
2017-08-14T06:23:59.371Z,17.17
2017-08-14T06:25:09.337Z,17.09
2017-08-14T06:26:19.618Z,17.17
2017-08-14T06:27:29.893Z,17.17
2017-08-14T06:28:39.853Z,17.2
2017-08-14T06:29:50.396Z,17.27
2017-08-14T06:31:00.360Z,17.28
2017-08-14T06:32:10.314Z,17.31
2017-08-14T06:33:20.591Z,17.35
2017-08-14T06:34:30.881Z,17.42
2017-08-14T06:35:41.120Z,17.52
2017-08-14T06:36:51.422Z,17.47
2017-08-14T06:38:01.695Z,17.46
2017-08-14T06:39:11.662Z,17.66
2017-08-14T06:40:21.940Z,17.6
2017-08-14T06:41:32.165Z,17.73
2017-08-14T06:42:42.136Z,17.65
2017-08-14T06:43:52.415Z,17.73
2017-08-14T06:45:02.701Z,17.72
2017-08-14T06:46:12.968Z,17.82
2017-08-14T06:47:23.239Z,17.84
2017-08-14T06:48:33.202Z,17.88
2017-08-14T06:49:43.480Z,17.9
2017-08-14T06:50:53.781Z,17.93
2017-08-14T06:52:04.070Z,17.9
2017-08-14T06:53:14.605Z,18
2017-08-14T06:54:24.569Z,18.02
2017-08-14T06:55:34.532Z,17.97
2017-08-14T06:56:44.508Z,18.12
2017-08-14T06:57:54.795Z,18.09
2017-08-14T06:59:05.014Z,18.19
2017-08-14T07:00:15.294Z,18.19
2017-08-14T07:01:25.258Z,18.28
2017-08-14T07:02:35.567Z,18.37
2017-08-14T07:03:45.228Z,18.37
2017-08-14T07:04:55.450Z,18.39
2017-08-14T07:06:05.729Z,18.37
2017-08-14T07:07:16.006Z,18.43
2017-08-14T07:08:25.976Z,18.51
2017-08-14T07:09:35.635Z,18.53
2017-08-14T07:10:45.843Z,18.45
2017-08-14T07:11:56.127Z,18.52
2017-08-14T07:13:06.390Z,18.57
2017-08-14T07:14:16.358Z,18.7
2017-08-14T07:15:26.635Z,18.74
2017-08-14T07:16:37.166Z,18.73
2017-08-14T07:17:47.138Z,18.82
2017-08-14T07:18:57.113Z,18.85
2017-08-14T07:20:07.388Z,18.91
2017-08-14T07:21:17.677Z,19.07
2017-08-14T07:22:28.228Z,19.01
2017-08-14T07:23:38.500Z,19.05
2017-08-14T07:24:48.793Z,19.07
2017-08-14T07:25:58.774Z,19.12
2017-08-14T07:27:08.758Z,19.08
2017-08-14T07:28:19.291Z,19.19
2017-08-14T07:29:29.265Z,19.27
2017-08-14T07:30:39.582Z,19.26
2017-08-14T07:31:48.949Z,19.42
2017-08-14T07:32:58.939Z,19.38
2017-08-14T07:34:09.144Z,19.42
2017-08-14T07:35:19.429Z,19.44
2017-08-14T07:36:29.718Z,19.47
2017-08-14T07:37:39.983Z,19.59
2017-08-14T07:38:49.965Z,19.62
2017-08-14T07:40:00.487Z,19.62
2017-08-14T07:41:10.838Z,19.71
2017-08-14T07:42:20.820Z,19.71
2017-08-14T07:43:31.093Z,19.74
2017-08-14T07:44:41.061Z,19.81
2017-08-14T07:45:51.296Z,19.78
2017-08-14T07:47:01.596Z,19.72
2017-08-14T07:48:11.565Z,19.82
2017-08-14T07:49:21.554Z,19.97
2017-08-14T07:50:31.830Z,19.97
2017-08-14T07:51:42.427Z,20
2017-08-14T07:52:52.721Z,20.02
2017-08-14T07:54:02.698Z,19.99
2017-08-14T07:55:12.983Z,20.07
2017-08-14T07:56:23.266Z,20.08
2017-08-14T07:57:33.228Z,20.19
2017-08-14T07:58:42.905Z,20.19
2017-08-14T07:59:52.870Z,20.17
2017-08-14T08:01:03.169Z,20.26
2017-08-14T08:02:13.147Z,20.07
2017-08-14T08:03:23.684Z,19.99
2017-08-14T08:04:33.355Z,19.85
2017-08-14T08:05:42.698Z,19.9
2017-08-14T08:06:52.969Z,20.02
2017-08-14T08:08:03.257Z,19.96
2017-08-14T08:09:13.781Z,20.07
2017-08-14T08:10:23.450Z,20.11
2017-08-14T08:11:33.433Z,20.27
2017-08-14T08:12:43.726Z,20.19
2017-08-14T08:13:54.017Z,20.34
2017-08-14T08:15:03.925Z,20.26
2017-08-14T08:16:14.195Z,20.24
2017-08-14T08:17:24.157Z,20.22
2017-08-14T08:18:34.441Z,20.24
2017-08-14T08:19:44.727Z,20.26
2017-08-14T08:20:55.261Z,20.22
2017-08-14T08:22:04.905Z,20.33
2017-08-14T08:23:14.866Z,20.32
2017-08-14T08:24:25.162Z,20.34
2017-08-14T08:25:35.453Z,20.4
2017-08-14T08:26:45.985Z,20.52
2017-08-14T08:27:56.294Z,20.67
2017-08-14T08:29:06.259Z,20.71
2017-08-14T08:30:16.567Z,20.93
2017-08-14T08:31:26.857Z,20.89
2017-08-14T08:32:37.387Z,20.89
2017-08-14T08:33:47.693Z,20.93
2017-08-14T08:34:57.344Z,20.89
2017-08-14T08:36:07.332Z,21.1
2017-08-14T08:37:17.315Z,21.35
2017-08-14T08:38:27.541Z,21.6
2017-08-14T08:39:37.518Z,22
2017-08-14T08:40:47.810Z,22.34
2017-08-14T08:41:57.782Z,22.61
2017-08-14T08:43:08.072Z,22.91
2017-08-14T08:44:18.310Z,22.86
2017-08-14T08:45:28.273Z,22.77
2017-08-14T08:46:37.942Z,23.01
2017-08-14T08:47:47.933Z,23.28
2017-08-14T08:48:58.220Z,23.64
2017-08-14T08:50:08.126Z,23.88
2017-08-14T08:51:18.100Z,24.21
2017-08-14T08:52:28.066Z,24.25
2017-08-14T08:53:38.364Z,24.18
2017-08-14T08:54:48.342Z,24.21
2017-08-14T08:55:58.886Z,24.4
2017-08-14T08:57:08.570Z,24.74
2017-08-14T08:58:18.765Z,24.85
2017-08-14T08:59:29.054Z,24.82
2017-08-14T09:00:39.070Z,24.88
2017-08-14T09:01:49.618Z,24.99
2017-08-14T09:02:59.902Z,25.16
2017-08-14T09:04:09.881Z,25.55
2017-08-14T09:05:20.172Z,25.8
2017-08-14T09:06:30.448Z,25.89
2017-08-14T09:07:40.975Z,26.33
2017-08-14T09:08:50.954Z,26.33
2017-08-14T09:10:01.256Z,26.42
2017-08-14T09:11:11.228Z,26.18
2017-08-14T09:12:21.197Z,26.31
2017-08-14T09:13:31.486Z,26.22
2017-08-14T09:14:41.792Z,25.89
2017-08-14T09:15:51.472Z,25.76
2017-08-14T09:17:01.764Z,25.71
2017-08-14T09:18:11.746Z,25.68
2017-08-14T09:19:22.033Z,25.76
2017-08-14T09:20:32.311Z,25.51
2017-08-14T09:21:42.589Z,24.86
2017-08-14T09:22:52.865Z,24.68
2017-08-14T09:24:03.160Z,24.26
2017-08-14T09:25:13.696Z,24.34
2017-08-14T09:26:23.988Z,24.29
2017-08-14T09:27:33.964Z,24.19
2017-08-14T09:28:43.946Z,24.11
2017-08-14T09:29:53.603Z,23.94
2017-08-14T09:31:04.143Z,24
2017-08-14T09:32:14.120Z,24.16
2017-08-14T09:33:24.404Z,24.13
2017-08-14T09:34:34.692Z,24.34
2017-08-14T09:35:45.219Z,24.58
2017-08-14T09:36:55.754Z,24.69
2017-08-14T09:38:06.039Z,25.24
2017-08-14T09:39:16.419Z,25.59
2017-08-14T09:40:26.717Z,26.03
2017-08-14T09:41:37.036Z,26.36
2017-08-14T09:42:47.576Z,26.93
2017-08-14T09:43:57.865Z,27.44
2017-08-14T09:45:08.142Z,27.94
2017-08-14T09:46:17.804Z,28.34
2017-08-14T09:47:27.780Z,28.75
2017-08-14T09:48:38.324Z,29.1
2017-08-14T09:49:48.624Z,29.42
2017-08-14T09:50:58.931Z,29.77
2017-08-14T09:52:09.231Z,30.13
2017-08-14T09:53:19.560Z,30.65
2017-08-14T09:54:30.141Z,30.98
2017-08-14T09:55:40.423Z,31.2
2017-08-14T09:56:50.385Z,31.44
2017-08-14T09:58:00.684Z,31.62
2017-08-14T09:59:10.981Z,31.72
2017-08-14T10:00:21.266Z,31.74
2017-08-14T10:01:31.228Z,31.82
2017-08-14T10:02:41.201Z,31.45
2017-08-14T10:03:51.488Z,31.32
2017-08-14T10:05:01.466Z,30.99
2017-08-14T10:06:11.684Z,31.1
2017-08-14T10:07:21.032Z,30.63
2017-08-14T10:08:31.327Z,30.36
2017-08-14T10:09:41.594Z,29.89
2017-08-14T10:10:51.886Z,28.78
2017-08-14T10:12:02.433Z,28.38
2017-08-14T10:13:12.404Z,28
2017-08-14T10:14:22.368Z,27.79
2017-08-14T10:15:32.037Z,28.08
2017-08-14T10:16:42.332Z,28.08
2017-08-14T10:17:52.848Z,27.95
2017-08-14T10:19:03.143Z,27.94
2017-08-14T10:20:13.123Z,27.67
2017-08-14T10:21:23.409Z,27.81
2017-08-14T10:22:33.700Z,28.03
2017-08-14T10:23:44.344Z,28.45
2017-08-14T10:24:54.632Z,28.65
2017-08-14T10:26:04.607Z,28.47
2017-08-14T10:27:14.569Z,28.35
2017-08-14T10:28:24.849Z,27.68
2017-08-14T10:29:35.397Z,28.04
2017-08-14T10:30:45.678Z,28.65
2017-08-14T10:31:55.979Z,28.82
2017-08-14T10:33:06.272Z,28.46
2017-08-14T10:34:16.578Z,28.01
2017-08-14T10:35:26.820Z,27.71
2017-08-14T10:36:37.134Z,27.38
2017-08-14T10:37:47.452Z,27.13
2017-08-14T10:38:57.426Z,27.43
2017-08-14T10:40:07.421Z,27.88
2017-08-14T10:41:17.650Z,27.72
2017-08-14T10:42:27.957Z,27.58
2017-08-14T10:43:38.254Z,27.11
2017-08-14T10:44:48.565Z,26.93
2017-08-14T10:45:58.848Z,26.78
2017-08-14T10:47:09.450Z,26.92
2017-08-14T10:48:19.445Z,26.67
2017-08-14T10:49:29.737Z,26.53
2017-08-14T10:50:40.025Z,26.22
2017-08-14T10:51:49.997Z,26.06
2017-08-14T10:53:00.569Z,25.93
2017-08-14T10:54:10.864Z,25.95
2017-08-14T10:55:20.861Z,26.33
2017-08-14T10:56:31.270Z,26.86
2017-08-14T10:57:41.230Z,27.28
2017-08-14T10:58:51.463Z,27.79
2017-08-14T11:00:01.781Z,28.03
2017-08-14T11:01:11.754Z,27.78
2017-08-14T11:02:21.737Z,27.75
2017-08-14T11:03:31.759Z,27.78
2017-08-14T11:04:42.292Z,27.43
2017-08-14T11:05:52.602Z,27.44
2017-08-14T11:07:02.928Z,27.23
2017-08-14T11:08:13.218Z,27.19
2017-08-14T11:09:23.512Z,27.38
2017-08-14T11:10:34.097Z,27.35
2017-08-14T11:11:44.395Z,27.04
2017-08-14T11:12:54.706Z,27.28
2017-08-14T11:14:05.002Z,27.63
2017-08-14T11:15:15.303Z,27.78
2017-08-14T11:16:25.535Z,27.93
2017-08-14T11:17:35.522Z,27.57
2017-08-14T11:18:45.800Z,27.19
2017-08-14T11:19:56.074Z,26.82
2017-08-14T11:21:06.366Z,26.73
2017-08-14T11:22:16.595Z,26.88
2017-08-14T11:23:26.895Z,27.52
2017-08-14T11:24:37.178Z,27.71
2017-08-14T11:25:47.457Z,27.98
2017-08-14T11:26:57.764Z,28.2
2017-08-14T11:28:08.000Z,28.1
2017-08-14T11:29:17.985Z,27.73
2017-08-14T11:30:28.267Z,27.57
2017-08-14T11:31:38.575Z,27.53
2017-08-14T11:32:48.873Z,27.19
2017-08-14T11:33:59.411Z,27.04
2017-08-14T11:35:09.093Z,27.2
2017-08-14T11:36:18.798Z,27.35
2017-08-14T11:37:29.108Z,27.28
2017-08-14T11:38:39.404Z,27.66
2017-08-14T11:39:49.957Z,28.16
2017-08-14T11:41:00.266Z,28.56
2017-08-14T11:42:10.557Z,28.1
2017-08-14T11:43:20.537Z,28.1
2017-08-14T11:44:30.828Z,27.83
2017-08-14T11:45:41.072Z,27.78
2017-08-14T11:46:51.044Z,27.85
2017-08-14T11:48:01.327Z,28.03
2017-08-14T11:49:11.632Z,28.03
2017-08-14T11:50:21.606Z,27.88
2017-08-14T11:51:31.846Z,28.33
2017-08-14T11:52:41.822Z,28.46
2017-08-14T11:53:52.125Z,28.67
2017-08-14T11:55:02.103Z,29
2017-08-14T11:56:11.781Z,28.84
2017-08-14T11:57:22.032Z,28.68
2017-08-14T11:58:32.317Z,28.8
2017-08-14T11:59:42.283Z,28.2
2017-08-14T12:00:51.968Z,28.27
2017-08-14T12:02:02.254Z,28.6
2017-08-14T12:03:12.800Z,28.92
2017-08-14T12:04:23.084Z,29.3
2017-08-14T12:05:33.378Z,29.4
2017-08-14T12:06:43.357Z,29.84
2017-08-14T12:07:53.019Z,30.38
2017-08-14T12:09:03.253Z,30.62
2017-08-14T12:10:13.545Z,30.99
2017-08-14T12:11:24.029Z,31.08
2017-08-14T12:12:34.322Z,31.28
2017-08-14T12:13:44.630Z,31.33
2017-08-14T12:14:54.860Z,31.25
2017-08-14T12:16:05.156Z,31.28
2017-08-14T12:17:15.444Z,31.23
2017-08-14T12:18:25.124Z,31.14
2017-08-14T12:19:35.414Z,31.1
2017-08-14T12:20:47.156Z,31.07
2017-08-14T12:21:59.820Z,31.17
2017-08-14T12:23:10.130Z,31.47
2017-08-14T12:24:20.109Z,31.92
2017-08-14T12:33:08.030Z,32.67
2017-08-14T12:35:33.069Z,32.12
